Time;durP1;ratioP1;P1;durP2;ratioP2;P2;SDS_P1;SDS_P2;PMS_P1;PMS_P2;Temp;Humidity;BMP_temperature;BMP_pressure;BME280_temperature;BME280_humidity;BME280_pressure;Samples;Min_cycle;Max_cycle;Signal;HPM_P1;HPM_P2
2023/07/29 00:00:56;;;;;;;;;8.00;6.67;;;;;22.33;69.83;100406.97;5122694;27;46306;-71
2023/07/29 00:03:22;;;;;;;;;7.00;7.00;;;;;22.41;70.30;100412.22;5114786;27;45351;-73
2023/07/29 00:05:48;;;;;;;;;7.00;7.00;;;;;22.36;70.44;100419.63;5114801;27;45441;-71
2023/07/29 00:08:13;;;;;;;;;7.00;6.00;;;;;22.24;70.78;100405.38;5108254;27;45397;-70
2023/07/29 00:10:38;;;;;;;;;6.33;5.33;;;;;22.34;70.94;100418.75;5114160;27;45066;-72
2023/07/29 00:13:05;;;;;;;;;6.67;6.67;;;;;22.28;70.83;100408.91;5118328;27;45081;-69
2023/07/29 00:15:31;;;;;;;;;9.00;6.00;;;;;22.29;70.63;100399.84;5096191;27;45080;-71
2023/07/29 00:17:56;;;;;;;;;7.00;7.00;;;;;22.33;70.30;100396.09;5121807;27;45229;-72
2023/07/29 00:20:21;;;;;;;;;10.67;6.00;;;;;22.26;70.21;100384.47;5128088;27;45074;-71
2023/07/29 00:22:49;;;;;;;;;15.33;12.67;;;;;22.35;69.75;100387.88;5114878;27;45103;-72
2023/07/29 00:25:15;;;;;;;;;9.00;7.67;;;;;22.34;69.30;100380.66;5117797;27;45287;-74
2023/07/29 00:27:40;;;;;;;;;6.00;6.00;;;;;22.22;69.08;100368.25;5114568;27;45002;-70
2023/07/29 00:30:06;;;;;;;;;6.33;5.33;;;;;22.21;69.02;100361.91;5124075;27;45267;-69
2023/07/29 00:32:31;;;;;;;;;7.00;7.00;;;;;22.32;68.95;100377.09;5114086;27;45111;-70
2023/07/29 00:34:57;;;;;;;;;4.67;4.67;;;;;22.30;68.85;100381.69;5116932;27;44921;-71
2023/07/29 00:37:22;;;;;;;;;6.33;5.00;;;;;22.27;68.46;100385.34;5121677;27;45231;-74
2023/07/29 00:39:47;;;;;;;;;4.00;4.00;;;;;22.26;68.31;100389.00;5114439;27;45059;-72
2023/07/29 00:42:13;;;;;;;;;5.00;4.00;;;;;22.09;68.47;100362.25;5126825;27;45164;-71
2023/07/29 00:44:38;;;;;;;;;4.00;4.00;;;;;22.19;67.87;100390.09;5114161;27;46886;-74
2023/07/29 00:47:05;;;;;;;;;6.00;5.00;;;;;22.14;68.16;100401.13;5124017;27;45334;-71
2023/07/29 00:49:32;;;;;;;;;6.00;4.00;;;;;22.13;68.02;100406.63;5100271;27;47063;-71
2023/07/29 00:51:58;;;;;;;;;3.33;3.33;;;;;22.06;67.65;100411.34;5114273;27;45068;-70
2023/07/29 00:54:23;;;;;;;;;2.67;2.67;;;;;22.00;67.26;100398.75;5095014;27;45128;-70
2023/07/29 00:56:48;;;;;;;;;1.33;1.33;;;;;22.00;67.29;100404.22;5120218;27;45153;-69
2023/07/29 00:59:14;;;;;;;;;2.67;2.67;;;;;21.98;66.78;100403.34;5121078;27;45249;-70
2023/07/29 01:01:39;;;;;;;;;5.00;1.00;;;;;21.86;66.06;100393.69;5122019;27;45311;-75
2023/07/29 01:04:04;;;;;;;;;1.00;1.00;;;;;21.80;66.17;100393.84;5114782;27;45122;-73
2023/07/29 01:06:58;;;;;;;;;3.00;2.00;;;;;21.85;66.82;100407.34;5114980;27;47470;-74
2023/07/29 01:09:33;;;;;;;;;4.00;4.00;;;;;21.83;66.85;100407.38;5113957;27;45473;-73
2023/07/29 01:12:11;;;;;;;;;2.00;2.00;;;;;21.68;66.83;100397.78;5121765;27;45005;-76
2023/07/29 01:14:55;;;;;;;;;3.00;2.00;;;;;21.78;66.72;100427.44;5114384;27;45163;-74
2023/07/29 01:17:25;;;;;;;;;2.00;2.00;;;;;21.70;66.52;100408.63;5114191;27;45224;-74
2023/07/29 01:19:53;;;;;;;;;1.00;1.00;;;;;21.67;66.63;100385.09;5118761;27;45216;-74
2023/07/29 01:22:20;;;;;;;;;1.33;1.33;;;;;21.62;66.82;100383.44;5095434;27;44998;-71
2023/07/29 01:24:45;;;;;;;;;4.00;2.00;;;;;21.46;66.94;100372.03;5119964;27;45015;-74
2023/07/29 01:27:11;;;;;;;;;3.00;1.67;;;;;21.55;67.15;100382.72;5116255;27;45142;-72
2023/07/29 01:29:36;;;;;;;;;3.33;3.33;;;;;21.54;66.95;100386.34;5113927;27;45676;-72
2023/07/29 01:32:14;;;;;;;;;2.00;2.00;;;;;21.48;66.97;100387.41;5113396;27;44913;-71
2023/07/29 01:35:04;;;;;;;;;3.00;3.00;;;;;21.48;66.95;100400.06;5113951;27;45288;-74
2023/07/29 01:37:34;;;;;;;;;1.67;1.67;;;;;21.49;66.80;100391.00;5112905;27;45376;-72
2023/07/29 01:40:00;;;;;;;;;1.00;1.00;;;;;21.35;66.91;100375.00;5126059;27;45090;-71
2023/07/29 01:42:26;;;;;;;;;1.00;1.00;;;;;21.38;66.57;100384.91;5116771;27;45087;-74
2023/07/29 01:44:52;;;;;;;;;2.00;2.00;;;;;21.36;66.58;100393.09;5095268;27;45085;-72
2023/07/29 01:47:17;;;;;;;;;2.00;2.00;;;;;21.24;67.02;100379.81;5117723;27;45169;-74
2023/07/29 01:49:43;;;;;;;;;1.67;1.67;;;;;21.30;67.44;100385.06;5113188;27;46057;-74
2023/07/29 01:52:08;;;;;;;;;1.00;1.00;;;;;21.31;66.89;100384.16;5101233;27;45067;-69
2023/07/29 01:54:34;;;;;;;;;1.00;1.00;;;;;21.27;66.92;100393.31;5130337;27;45539;-69
2023/07/29 01:56:59;;;;;;;;;3.00;1.00;;;;;21.22;67.08;100396.16;5116559;27;45148;-68
2023/07/29 01:59:25;;;;;;;;;4.00;1.00;;;;;20.86;67.05;100336.28;5116164;27;45159;-69
2023/07/29 02:01:50;;;;;;;;;0.00;0.00;;;;;21.19;66.85;100403.47;5114092;27;45141;-71
2023/07/29 02:04:16;;;;;;;;;0.67;0.00;;;;;21.07;66.98;100389.25;5116017;27;45098;-74
2023/07/29 02:06:41;;;;;;;;;2.00;1.67;;;;;21.11;67.15;100404.53;5116699;27;45165;-70
2023/07/29 02:09:06;;;;;;;;;1.33;1.33;;;;;21.11;67.25;100420.81;5112583;27;45655;-69
2023/07/29 02:11:32;;;;;;;;;2.00;2.00;;;;;21.09;67.33;100430.84;5111045;27;45189;-71
2023/07/29 02:13:58;;;;;;;;;1.00;1.00;;;;;21.02;67.06;100420.13;5123701;27;53933;-68
2023/07/29 02:16:23;;;;;;;;;1.00;1.00;;;;;21.04;67.46;100424.63;5114349;27;45057;-68
2023/07/29 02:18:49;;;;;;;;;2.00;0.00;;;;;21.05;67.40;100371.19;5119657;27;45175;-70
2023/07/29 02:21:15;;;;;;;;;3.00;0.67;;;;;21.04;67.08;100374.84;5113143;27;44975;-71
2023/07/29 02:23:41;;;;;;;;;1.00;1.00;;;;;21.06;67.16;100398.31;5114752;27;45398;-72
2023/07/29 02:26:06;;;;;;;;;3.00;1.33;;;;;21.01;67.13;100367.63;5123251;27;45290;-71
2023/07/29 02:28:31;;;;;;;;;1.33;1.33;;;;;21.02;67.06;100364.00;5127323;27;45198;-68
2023/07/29 02:31:20;;;;;;;;;3.33;2.67;;;;;21.08;67.23;100388.28;5099361;27;46959;-70
2023/07/29 02:33:46;;;;;;;;;2.00;2.00;;;;;21.00;66.95;100379.41;5118723;27;44982;-72
2023/07/29 02:36:12;;;;;;;;;0.00;0.00;;;;;20.72;67.06;100352.00;5120988;27;45292;-70
2023/07/29 02:38:38;;;;;;;;;1.33;1.00;;;;;20.95;67.41;100398.56;5112747;27;46120;-70
2023/07/29 02:41:03;;;;;;;;;1.00;1.00;;;;;20.82;67.39;100385.25;5117004;27;45128;-75
2023/07/29 02:43:29;;;;;;;;;2.67;1.00;;;;;20.88;67.42;100402.31;5112803;27;45208;-71
2023/07/29 02:45:54;;;;;;;;;1.00;1.00;;;;;20.84;67.54;100396.97;5094563;27;45347;-78
2023/07/29 02:48:20;;;;;;;;;3.00;1.33;;;;;20.78;67.66;100407.06;5113521;27;49033;-70
2023/07/29 02:50:45;;;;;;;;;2.00;1.33;;;;;20.72;67.68;100395.44;5119244;27;45074;-70
2023/07/29 02:53:10;;;;;;;;;0.00;0.00;;;;;20.70;67.66;100400.00;5115255;27;45869;-69
2023/07/29 02:55:40;;;;;;;;;1.00;1.00;;;;;20.59;67.80;100383.88;5120826;27;45027;-73
2023/07/29 02:58:05;;;;;;;;;5.00;3.33;;;;;20.66;68.05;100409.16;5107375;27;47072;-71
2023/07/29 03:00:31;;;;;;;;;1.00;1.00;;;;;20.62;68.26;100401.03;5111307;27;45150;-70
2023/07/29 03:02:57;;;;;;;;;1.00;1.00;;;;;20.62;68.47;100406.47;5116391;27;45144;-71
2023/07/29 03:05:22;;;;;;;;;3.67;1.00;;;;;20.57;68.28;100393.91;5099086;27;45214;-71
2023/07/29 03:07:47;;;;;;;;;1.00;1.00;;;;;20.57;68.55;100407.47;5117811;27;45540;-71
2023/07/29 03:10:14;;;;;;;;;1.33;1.33;;;;;20.50;68.67;100405.81;5116670;27;45245;-71
2023/07/29 03:12:39;;;;;;;;;2.67;2.67;;;;;20.40;68.45;100400.56;5111840;27;45170;-73
2023/07/29 03:15:05;;;;;;;;;4.00;1.00;;;;;20.49;68.85;100417.56;5114208;27;45133;-71
2023/07/29 03:17:30;;;;;;;;;1.00;1.00;;;;;20.37;68.89;100397.00;5111818;27;45456;-70
2023/07/29 03:19:56;;;;;;;;;0.00;0.00;;;;;20.56;69.09;100421.97;5118470;27;45249;-70
2023/07/29 03:22:21;;;;;;;;;0.00;0.00;;;;;20.50;68.55;100414.84;5123724;27;45081;-70
2023/07/29 03:24:46;;;;;;;;;0.33;0.33;;;;;20.48;69.12;100413.97;5110999;27;44938;-72
2023/07/29 03:27:12;;;;;;;;;0.00;0.00;;;;;20.39;68.96;100403.28;5126415;27;53338;-72
2023/07/29 03:29:37;;;;;;;;;1.67;1.67;;;;;20.47;69.49;100433.00;5111587;27;44924;-73
2023/07/29 03:32:03;;;;;;;;;0.00;0.00;;;;;20.31;69.31;100416.13;5111802;27;45295;-73
2023/07/29 03:34:28;;;;;;;;;2.33;0.67;;;;;20.16;69.24;100390.19;5117886;27;44861;-70
2023/07/29 03:36:54;;;;;;;;;0.33;0.33;;;;;20.34;69.86;100435.97;5113739;27;45645;-70
2023/07/29 03:39:19;;;;;;;;;0.00;0.00;;;;;20.22;69.92;100420.78;5112024;27;44858;-70
2023/07/29 03:41:44;;;;;;;;;0.00;0.00;;;;;20.37;70.00;100452.16;5112170;27;45478;-68
2023/07/29 03:44:09;;;;;;;;;2.67;2.00;;;;;20.20;69.74;100422.66;5119031;27;45114;-69
2023/07/29 03:46:35;;;;;;;;;1.00;1.00;;;;;20.36;69.78;100453.09;5114290;27;62546;-70
2023/07/29 03:49:00;;;;;;;;;1.00;1.00;;;;;20.20;70.13;100413.63;5120325;27;45016;-69
2023/07/29 03:51:26;;;;;;;;;1.33;0.33;;;;;20.31;69.55;100444.16;5117802;27;45249;-69
2023/07/29 03:53:51;;;;;;;;;0.33;0.33;;;;;20.28;69.66;100441.50;5113463;27;45094;-69
2023/07/29 03:56:16;;;;;;;;;2.00;2.00;;;;;20.24;70.11;100448.81;5118997;27;45207;-69
2023/07/29 03:58:43;;;;;;;;;3.00;1.00;;;;;20.24;69.98;100448.81;5114848;27;45273;-70
2023/07/29 04:01:09;;;;;;;;;1.67;1.67;;;;;20.25;70.01;100438.84;5118451;27;45025;-69
2023/07/29 04:03:35;;;;;;;;;1.00;1.00;;;;;20.24;70.10;100434.31;5115079;27;45048;-69
2023/07/29 04:06:00;;;;;;;;;1.00;1.00;;;;;20.21;69.98;100437.09;5114251;27;45224;-69
2023/07/29 04:08:27;;;;;;;;;1.33;1.33;;;;;20.21;70.05;100440.72;5126708;27;45035;-72
2023/07/29 04:10:53;;;;;;;;;2.33;2.33;;;;;20.14;70.18;100435.44;5115978;27;45249;-70
2023/07/29 04:13:18;;;;;;;;;1.00;1.00;;;;;20.17;70.19;100447.09;5124563;27;45287;-70
2023/07/29 04:15:44;;;;;;;;;11.00;8.00;;;;;20.17;70.51;100452.53;5123853;27;45814;-71
2023/07/29 04:18:10;;;;;;;;;2.00;2.00;;;;;20.15;70.25;100451.69;5118382;27;45268;-70
2023/07/29 04:20:35;;;;;;;;;1.00;1.00;;;;;20.13;70.56;100452.63;5126981;27;45094;-69
2023/07/29 04:23:00;;;;;;;;;1.00;1.00;;;;;20.05;70.67;100437.38;5131352;27;44994;-70
2023/07/29 04:25:26;;;;;;;;;4.00;1.00;;;;;20.00;70.46;100435.69;5119166;27;46243;-70
2023/07/29 04:27:51;;;;;;;;;4.00;4.00;;;;;20.07;70.52;100453.63;5114280;27;45131;-70
2023/07/29 04:30:16;;;;;;;;;2.00;2.00;;;;;20.02;70.44;100453.69;5120458;27;44972;-70
2023/07/29 04:32:42;;;;;;;;;4.00;3.00;;;;;20.02;70.65;100474.50;5126147;27;44949;-71
2023/07/29 04:35:08;;;;;;;;;1.33;1.33;;;;;19.98;70.76;100472.75;5115387;27;46063;-70
2023/07/29 04:37:34;;;;;;;;;2.00;2.00;;;;;19.91;70.95;100466.53;5114703;27;45067;-72
2023/07/29 04:39:59;;;;;;;;;3.33;2.33;;;;;19.90;70.53;100467.47;5114609;27;45057;-69
2023/07/29 04:42:24;;;;;;;;;1.67;1.67;;;;;19.92;71.02;100465.63;5116746;27;45188;-69
2023/07/29 04:44:50;;;;;;;;;1.00;1.00;;;;;19.92;71.18;100459.31;5115975;27;45416;-68
2023/07/29 04:47:15;;;;;;;;;2.00;2.00;;;;;19.90;71.07;100464.78;5120239;27;45129;-72
2023/07/29 04:49:40;;;;;;;;;3.00;3.00;;;;;19.51;71.18;100396.69;5114513;27;44834;-71
2023/07/29 04:52:06;;;;;;;;;2.67;2.67;;;;;19.90;71.29;100464.78;5115588;27;47575;-70
2023/07/29 04:54:32;;;;;;;;;2.67;2.67;;;;;19.86;70.73;100455.81;5118073;27;46524;-69
2023/07/29 04:56:57;;;;;;;;;3.00;3.00;;;;;19.91;70.52;100466.53;5115982;27;45136;-71
2023/07/29 04:59:22;;;;;;;;;3.00;3.00;;;;;19.91;70.70;100465.66;5118460;27;45048;-73
2023/07/29 05:01:48;;;;;;;;;4.00;2.00;;;;;19.88;70.81;100453.03;5114429;27;45068;-71
2023/07/29 05:04:13;;;;;;;;;2.00;2.00;;;;;19.96;70.77;100472.78;5120753;27;46574;-69
2023/07/29 05:06:38;;;;;;;;;1.67;1.67;;;;;19.98;70.41;100465.53;5113632;27;46806;-74
2023/07/29 05:09:17;;;;;;;;;2.33;2.33;;;;;19.90;70.45;100453.94;5115490;27;45157;-71
2023/07/29 05:11:47;;;;;;;;;0.67;0.67;;;;;19.96;70.00;100461.94;5118398;27;45246;-69
2023/07/29 05:14:17;;;;;;;;;2.00;2.00;;;;;20.01;70.28;100479.06;5114050;27;46259;-67
2023/07/29 05:16:43;;;;;;;;;2.33;2.33;;;;;19.97;70.29;100471.88;5119575;27;45305;-70
2023/07/29 05:19:08;;;;;;;;;2.00;2.00;;;;;19.98;70.00;100467.34;5106765;27;45224;-69
2023/07/29 05:21:34;;;;;;;;;1.00;1.00;;;;;20.03;69.80;100484.44;5119916;27;45135;-70
2023/07/29 05:23:59;;;;;;;;;2.00;1.00;;;;;20.05;69.77;100479.88;5117364;27;45145;-71
2023/07/29 05:26:25;;;;;;;;;4.33;2.00;;;;;20.05;69.94;100475.34;5114949;27;45104;-68
2023/07/29 05:28:50;;;;;;;;;3.00;2.00;;;;;20.07;69.43;100473.50;5116486;27;45088;-70
2023/07/29 05:31:16;;;;;;;;;2.00;1.67;;;;;20.07;69.19;100478.91;5114000;27;45181;-68
2023/07/29 05:33:41;;;;;;;;;1.33;1.00;;;;;19.98;69.25;100461.91;5116433;27;45647;-67
2023/07/29 05:36:06;;;;;;;;;1.00;1.00;;;;;20.06;69.58;100470.81;5113166;27;44936;-72
2023/07/29 05:38:32;;;;;;;;;2.00;2.00;;;;;20.11;69.55;100484.31;5116908;27;45043;-69
2023/07/29 05:40:57;;;;;;;;;2.00;2.00;;;;;20.10;69.51;100487.94;5112976;27;45014;-69
2023/07/29 05:43:27;;;;;;;;;0.67;0.67;;;;;20.13;69.25;100487.88;5112394;27;45747;-69
2023/07/29 05:45:52;;;;;;;;;2.00;2.00;;;;;20.02;69.21;100464.56;5111727;27;45066;-71
2023/07/29 05:48:19;;;;;;;;;2.00;2.00;;;;;20.13;69.08;100474.31;5115769;27;44984;-68
2023/07/29 05:50:46;;;;;;;;;1.00;1.00;;;;;20.15;69.05;100478.81;5116768;27;45191;-68
2023/07/29 05:53:11;;;;;;;;;1.00;1.00;;;;;20.19;68.79;100482.34;5095831;27;46296;-70
2023/07/29 05:55:37;;;;;;;;;1.67;1.67;;;;;20.14;69.10;100485.13;5116316;27;45478;-71
2023/07/29 05:58:02;;;;;;;;;1.67;1.67;;;;;20.13;69.18;100474.31;5112857;27;45254;-69
2023/07/29 06:00:27;;;;;;;;;1.00;1.00;;;;;20.12;69.03;100481.56;5103017;27;45197;-69
2023/07/29 06:02:53;;;;;;;;;1.00;1.00;;;;;20.15;68.94;100476.09;5103166;27;46228;-68
2023/07/29 06:05:18;;;;;;;;;2.33;1.00;;;;;20.19;68.81;100482.34;5094703;27;44945;-70
2023/07/29 06:07:44;;;;;;;;;1.67;1.67;;;;;20.12;68.53;100467.13;5114070;27;45074;-68
2023/07/29 06:10:17;;;;;;;;;2.67;2.00;;;;;20.18;68.82;100477.88;5114001;27;44945;-69
2023/07/29 06:12:43;;;;;;;;;2.00;2.00;;;;;20.13;68.99;100461.66;5116471;27;45154;-70
2023/07/29 06:15:09;;;;;;;;;2.33;1.00;;;;;20.13;68.53;100453.53;5112957;27;45005;-68
2023/07/29 06:17:34;;;;;;;;;2.67;2.00;;;;;20.24;68.50;100481.38;5115018;27;45269;-70
2023/07/29 06:19:59;;;;;;;;;1.00;1.00;;;;;20.16;68.55;100461.63;5116795;27;45317;-72
2023/07/29 06:22:25;;;;;;;;;3.67;1.00;;;;;20.17;68.06;100457.06;5105575;27;45583;-71
2023/07/29 06:24:50;;;;;;;;;1.00;1.00;;;;;20.33;67.69;100491.16;5124710;27;45162;-69
2023/07/29 06:27:16;;;;;;;;;1.67;1.67;;;;;20.16;67.55;100466.13;5106852;27;45166;-70
2023/07/29 06:29:41;;;;;;;;;2.00;2.00;;;;;20.24;67.95;100488.59;5105158;27;44957;-72
2023/07/29 06:32:06;;;;;;;;;1.00;1.00;;;;;20.34;67.65;100506.50;5111744;27;46403;-70
2023/07/29 06:34:32;;;;;;;;;0.33;0.33;;;;;20.37;67.51;100509.16;5114326;27;45330;-71
2023/07/29 06:36:57;;;;;;;;;1.00;1.00;;;;;20.35;67.40;100486.56;5115903;27;45127;-70
2023/07/29 06:39:22;;;;;;;;;0.67;0.67;;;;;20.46;66.94;100510.81;5117350;27;45870;-73
2023/07/29 06:41:48;;;;;;;;;1.67;0.00;;;;;20.45;67.02;100514.44;5093783;27;57142;-72
2023/07/29 06:44:13;;;;;;;;;1.00;1.00;;;;;20.44;66.72;100510.84;5109851;27;44935;-69
2023/07/29 06:46:39;;;;;;;;;0.00;0.00;;;;;20.36;66.58;100498.31;5118991;27;45438;-73
2023/07/29 06:49:05;;;;;;;;;0.00;0.00;;;;;20.40;66.33;100509.09;5115845;27;45031;-69
2023/07/29 06:51:34;;;;;;;;;0.67;0.67;;;;;20.38;66.34;100491.06;5110145;27;46026;-71
2023/07/29 06:54:00;;;;;;;;;1.00;1.00;;;;;20.54;66.30;100510.66;5114643;27;45132;-71
2023/07/29 06:56:25;;;;;;;;;0.67;0.33;;;;;20.57;66.47;100513.31;5115747;27;45159;-70
2023/07/29 06:58:50;;;;;;;;;1.33;0.00;;;;;20.58;66.09;100515.13;5122200;27;45308;-72
2023/07/29 07:01:16;;;;;;;;;2.00;0.00;;;;;20.66;65.82;100517.75;5114417;27;45122;-71
2023/07/29 07:03:41;;;;;;;;;0.00;0.00;;;;;20.66;65.82;100507.75;5094808;27;45534;-74
2023/07/29 07:06:06;;;;;;;;;1.67;1.67;;;;;20.44;65.67;100463.78;5122034;27;45058;-73
2023/07/29 07:08:32;;;;;;;;;2.00;2.00;;;;;20.82;65.36;100513.75;5116637;27;45387;-77
2023/07/29 07:10:57;;;;;;;;;0.00;0.00;;;;;20.90;64.84;100532.63;5121180;27;45569;-71
2023/07/29 07:13:22;;;;;;;;;1.00;1.00;;;;;20.93;64.54;100533.47;5115773;27;50061;-71
2023/07/29 07:15:48;;;;;;;;;0.33;0.33;;;;;20.96;64.48;100536.13;5115093;27;45174;-70
2023/07/29 07:18:13;;;;;;;;;1.00;1.00;;;;;21.06;64.47;100541.38;5115891;27;45134;-74
2023/07/29 07:20:39;;;;;;;;;2.00;2.00;;;;;21.04;63.86;100529.66;5118782;27;46013;-70
2023/07/29 07:23:05;;;;;;;;;1.67;1.00;;;;;21.11;63.71;100553.94;5098746;27;45030;-73
2023/07/29 07:25:31;;;;;;;;;0.00;0.00;;;;;21.11;63.75;100553.94;5118379;27;45465;-72
2023/07/29 07:27:56;;;;;;;;;2.00;2.00;;;;;20.76;63.39;100493.06;5116321;27;45126;-77
2023/07/29 07:30:22;;;;;;;;;0.33;0.33;;;;;21.10;63.94;100549.44;5115917;27;45466;-74
2023/07/29 07:32:47;;;;;;;;;0.00;0.00;;;;;21.09;63.50;100536.78;5109363;27;45229;-72
2023/07/29 07:35:12;;;;;;;;;1.00;1.00;;;;;21.02;63.49;100516.13;5122238;27;45249;-75
2023/07/29 07:37:38;;;;;;;;;2.67;1.67;;;;;21.04;63.27;100513.38;5115372;27;44931;-76
2023/07/29 07:40:03;;;;;;;;;2.00;1.00;;;;;21.27;63.46;100549.09;5116223;27;45391;-75
2023/07/29 07:42:29;;;;;;;;;0.67;0.00;;;;;21.00;63.31;100493.50;5089847;27;45336;-77
2023/07/29 07:44:54;;;;;;;;;1.00;1.00;;;;;21.35;63.31;100552.53;5097877;27;45394;-75
2023/07/29 07:47:20;;;;;;;;;1.00;1.00;;;;;21.39;63.15;100556.09;5108057;27;45487;-74
2023/07/29 07:49:45;;;;;;;;;0.00;0.00;;;;;21.43;62.97;100554.19;5118801;27;45826;-71
2023/07/29 07:52:10;;;;;;;;;0.00;0.00;;;;;21.48;63.00;100549.56;5104889;27;45299;-76
2023/07/29 07:54:36;;;;;;;;;1.00;1.00;;;;;21.51;62.18;100555.88;5095423;27;45595;-78
2023/07/29 07:57:01;;;;;;;;;0.00;0.00;;;;;21.53;62.31;100548.56;5115738;27;45351;-76
2023/07/29 07:59:27;;;;;;;;;0.00;0.00;;;;;21.52;62.32;100549.47;5114292;27;45588;-72
2023/07/29 08:01:52;;;;;;;;;0.00;0.00;;;;;21.52;62.05;100545.88;5109850;27;45705;-74
2023/07/29 08:04:17;;;;;;;;;0.00;0.00;;;;;21.52;62.31;100544.03;5104926;27;45023;-78
2023/07/29 08:06:43;;;;;;;;;0.33;0.33;;;;;21.53;62.06;100545.84;5118809;27;45238;-71
2023/07/29 08:09:08;;;;;;;;;2.33;1.00;;;;;21.51;62.03;100549.50;5115344;27;49673;-75
2023/07/29 08:11:34;;;;;;;;;2.33;1.00;;;;;21.50;62.20;100554.06;5116587;27;45204;-75
2023/07/29 08:13:59;;;;;;;;;1.00;0.67;;;;;21.36;62.22;100526.25;5110488;27;45293;-76
2023/07/29 08:16:24;;;;;;;;;1.00;1.00;;;;;21.52;62.20;100557.63;5100859;27;45278;-73
2023/07/29 08:18:50;;;;;;;;;1.00;1.00;;;;;21.52;61.91;100549.47;5115292;27;45106;-74
2023/07/29 08:21:15;;;;;;;;;2.33;2.00;;;;;21.62;62.16;100550.16;5120272;27;45334;-72
2023/07/29 08:23:40;;;;;;;;;1.00;1.00;;;;;21.62;61.58;100547.44;5114370;27;45138;-73
2023/07/29 08:26:06;;;;;;;;;1.00;1.00;;;;;21.68;61.36;100550.03;5129762;27;45085;-75
2023/07/29 08:28:34;;;;;;;;;2.00;0.67;;;;;21.64;61.56;100541.97;5101849;27;48042;-73
2023/07/29 08:31:00;;;;;;;;;2.00;1.00;;;;;21.81;62.66;100549.75;5096733;27;45380;-72
2023/07/29 08:33:26;;;;;;;;;1.00;1.00;;;;;21.89;61.84;100553.19;5115888;27;45059;-74
2023/07/29 08:35:51;;;;;;;;;1.00;1.00;;;;;21.95;61.35;100553.03;5111194;27;45483;-74
2023/07/29 08:38:17;;;;;;;;;1.33;1.33;;;;;21.93;61.07;100545.84;5086739;27;47694;-72
2023/07/29 08:40:52;;;;;;;;;1.00;1.00;;;;;21.98;61.22;100555.69;5092953;27;45987;-75
2023/07/29 08:43:20;;;;;;;;;0.67;0.67;;;;;22.05;61.32;100548.28;5102424;27;45547;-73
2023/07/29 08:45:46;;;;;;;;;2.00;2.00;;;;;21.88;61.25;100508.78;5102778;27;45566;-73
2023/07/29 08:48:14;;;;;;;;;0.00;0.00;;;;;22.17;60.88;100547.06;5105491;27;45449;-74
2023/07/29 08:50:41;;;;;;;;;1.00;1.00;;;;;22.17;60.63;100533.47;5083700;27;45470;-76
2023/07/29 08:53:07;;;;;;;;;3.67;2.00;;;;;22.20;60.42;100528.84;5105695;27;45499;-76
2023/07/29 08:55:33;;;;;;;;;1.00;1.00;;;;;22.30;60.18;100539.53;5101238;27;45466;-75
2023/07/29 08:57:59;;;;;;;;;2.00;0.00;;;;;22.25;60.21;100528.72;5107271;27;45710;-74
2023/07/29 09:00:26;;;;;;;;;2.00;2.00;;;;;22.49;59.51;100537.22;5086029;27;45111;-72
2023/07/29 09:02:52;;;;;;;;;2.00;2.00;;;;;22.60;59.31;100535.09;5098798;27;45428;-75
2023/07/29 09:05:18;;;;;;;;;2.67;1.00;;;;;22.68;58.84;100532.19;5107725;27;45507;-74
2023/07/29 09:07:46;;;;;;;;;1.33;0.33;;;;;22.72;58.43;100532.06;5106863;27;45997;-72
2023/07/29 09:48:22;;;;;;;;;0.33;0.33;;;;;23.04;57.15;100516.63;5172394;27;45497;-77
2023/07/29 09:50:47;;;;;;;;;2.00;2.00;;;;;23.15;57.42;100530.00;5156109;27;45375;-72
2023/07/29 09:53:14;;;;;;;;;2.00;2.00;;;;;23.11;56.89;100498.31;5147174;27;45576;-77
2023/07/29 09:55:45;;;;;;;;;1.00;1.00;;;;;23.32;56.71;100530.38;5156398;27;45557;-72
2023/07/29 09:58:11;;;;;;;;;2.67;1.00;;;;;23.32;56.54;100504.97;5136523;27;47139;-74
2023/07/29 10:00:38;;;;;;;;;1.00;1.00;;;;;23.53;56.29;100512.47;5144269;27;45492;-69
2023/07/29 10:03:04;;;;;;;;;1.00;1.00;;;;;23.66;55.87;100513.00;5151293;27;45653;-74
2023/07/29 10:05:30;;;;;;;;;3.00;1.00;;;;;23.77;55.30;100503.56;5130944;27;45999;-76
2023/07/29 10:07:56;;;;;;;;;2.00;1.00;;;;;23.89;55.08;100501.38;5152461;27;46244;-76
2023/07/29 10:10:22;;;;;;;;;4.00;2.00;;;;;23.97;54.20;100494.75;5136388;27;45417;-74
2023/07/29 10:12:49;;;;;;;;;2.00;2.00;;;;;24.03;54.08;100505.47;5155118;27;45334;-75
2023/07/29 10:15:15;;;;;;;;;4.33;3.00;;;;;23.99;53.99;100512.88;5153067;27;45436;-77
2023/07/29 10:17:40;;;;;;;;;2.33;2.33;;;;;23.77;54.37;100492.66;5157143;27;46080;-75
2023/07/29 10:20:08;;;;;;;;;2.00;2.00;;;;;23.79;54.78;100505.31;5170463;27;44990;-76
2023/07/29 10:22:37;;;;;;;;;3.00;3.00;;;;;23.82;55.08;100507.03;5151156;27;45071;-73
2023/07/29 10:25:06;;;;;;;;;4.33;3.00;;;;;23.79;55.56;100505.31;5168795;27;45104;-75
2023/07/29 10:27:41;;;;;;;;;1.00;1.00;;;;;23.83;55.32;100517.06;5171116;27;45093;-73
2023/07/29 10:30:08;;;;;;;;;2.00;2.00;;;;;23.81;54.98;100491.59;5167716;27;45206;-75
2023/07/29 10:32:34;;;;;;;;;7.33;3.67;;;;;24.03;54.59;100502.75;5162259;27;45057;-75
2023/07/29 10:34:59;;;;;;;;;3.33;3.33;;;;;24.16;54.55;100505.97;5157569;27;45248;-73
2023/07/29 10:37:25;;;;;;;;;3.00;3.00;;;;;24.16;54.08;100493.19;5168368;27;45159;-72
2023/07/29 10:39:55;;;;;;;;;3.67;3.00;;;;;24.33;53.83;100506.25;5140552;27;45251;-74
2023/07/29 10:42:21;;;;;;;;;3.00;3.00;;;;;24.32;53.94;100477.19;5149929;27;45409;-75
2023/07/29 10:44:51;;;;;;;;;3.33;3.00;;;;;24.45;53.70;100485.81;5160307;27;46354;-74
2023/07/29 10:47:24;;;;;;;;;3.67;3.00;;;;;24.65;53.20;100505.16;5139506;27;46852;-75
2023/07/29 10:49:52;;;;;;;;;4.00;4.00;;;;;24.73;52.84;100498.53;5116888;27;45693;-73
2023/07/29 10:52:34;;;;;;;;;3.00;2.00;;;;;24.82;52.51;100506.41;5133616;27;45142;-69
2023/07/29 10:55:01;;;;;;;;;1.67;1.67;;;;;24.91;53.05;100494.22;5122317;27;45457;-73
2023/07/29 10:57:34;;;;;;;;;5.00;3.00;;;;;24.99;53.04;100503.03;5139554;27;46457;-75
2023/07/29 11:00:00;;;;;;;;;4.00;4.00;;;;;24.93;52.60;100500.53;5149695;27;45270;-73
2023/07/29 11:02:32;;;;;;;;;3.00;3.00;;;;;24.95;52.95;100499.53;5136908;27;46972;-75
2023/07/29 11:04:58;;;;;;;;;3.00;3.00;;;;;24.84;52.74;100485.38;5147772;27;45121;-75
2023/07/29 11:07:28;;;;;;;;;4.00;4.00;;;;;24.83;52.77;100487.22;5154401;27;46177;-73
2023/07/29 11:09:56;;;;;;;;;3.00;3.00;;;;;24.93;53.15;100500.53;5151770;27;44932;-72
2023/07/29 11:12:42;;;;;;;;;3.00;3.00;;;;;24.97;53.10;100502.19;5146533;27;45390;-74
2023/07/29 11:15:10;;;;;;;;;3.00;2.00;;;;;24.95;52.80;100494.06;5141876;27;45457;-74
2023/07/29 11:17:39;;;;;;;;;5.00;3.00;;;;;24.90;52.98;100484.25;5133308;27;47998;-72
2023/07/29 11:20:05;;;;;;;;;3.33;1.00;;;;;24.77;52.71;100472.88;5147279;27;45081;-73
2023/07/29 11:22:31;;;;;;;;;4.00;4.00;;;;;24.89;53.19;100490.66;5150850;27;45114;-74
2023/07/29 11:24:56;;;;;;;;;3.00;3.00;;;;;24.83;52.82;100489.94;5140573;27;45165;-72
2023/07/29 11:27:21;;;;;;;;;3.67;2.67;;;;;24.86;53.37;100494.38;5140138;27;46178;-72
2023/07/29 11:29:48;;;;;;;;;3.33;3.33;;;;;24.72;53.71;100470.31;5120131;27;45600;-72
2023/07/29 11:32:14;;;;;;;;;3.00;3.00;;;;;24.87;53.61;100487.09;5144843;27;45378;-76
2023/07/29 11:34:40;;;;;;;;;3.00;1.67;;;;;24.90;53.41;100489.72;5148979;27;45375;-73
2023/07/29 11:37:06;;;;;;;;;4.33;4.33;;;;;24.86;53.42;100477.13;5132260;27;46291;-74
2023/07/29 11:39:39;;;;;;;;;4.00;3.00;;;;;24.90;54.01;100490.59;5144147;27;45479;-73
2023/07/29 11:42:05;;;;;;;;;3.00;3.00;;;;;24.78;53.92;100474.66;5135111;27;45424;-74
2023/07/29 11:44:30;;;;;;;;;2.33;2.00;;;;;24.65;55.86;100466.03;5148339;27;45341;-76
2023/07/29 11:46:56;;;;;;;;;2.00;1.00;;;;;24.78;56.29;100489.22;5139137;27;45555;-74
2023/07/29 11:49:21;;;;;;;;;3.00;3.00;;;;;24.76;56.88;100482.03;5124662;27;45636;-75
2023/07/29 11:51:46;;;;;;;;;2.67;1.00;;;;;24.79;56.71;100481.91;5157427;27;53931;-75
2023/07/29 11:54:12;;;;;;;;;2.67;2.67;;;;;24.84;56.82;100486.25;5155503;27;45146;-76
2023/07/29 11:56:37;;;;;;;;;4.00;2.00;;;;;24.83;55.75;100475.38;5154748;27;45580;-76
2023/07/29 11:59:03;;;;;;;;;1.00;1.00;;;;;24.84;55.58;100469.84;5132516;27;45062;-75